Time;durP1;ratioP1;P1;durP2;ratioP2;P2;SDS_P1;SDS_P2;PMS_P1;PMS_P2;Temp;Humidity;BMP_temperature;BMP_pressure;BME280_temperature;BME280_humidity;BME280_pressure;Samples;Min_cycle;Max_cycle;Signal;HPM_P1;HPM_P2
2021/05/06 00:02:32;;;;;;;5.07;1.55;;;;;;;6.43;65.07;95914.69;5038423;28;20094;-66
2021/05/06 00:08:08;;;;;;;2.80;1.10;;;;;;;6.48;65.32;95919.19;4970700;28;20077;-68
2021/05/06 00:11:00;;;;;;;1.60;1.08;;;;;;;6.40;65.14;95915.28;4970690;28;20043;-66
2021/05/06 00:30:30;;;;;;;2.72;1.27;;;;;;;6.42;65.25;95931.19;5072002;28;20060;-66
2021/05/06 00:32:57;;;;;;;2.67;1.40;;;;;;;6.45;65.19;95934.09;5072762;28;20040;-67
2021/05/06 00:35:25;;;;;;;1.85;1.00;;;;;;;6.45;65.51;95926.00;5071645;28;20044;-66
2021/05/06 00:37:58;;;;;;;4.40;1.38;;;;;;;6.45;65.04;95912.47;5072548;28;20132;-66
2021/05/06 00:40:30;;;;;;;4.57;1.33;;;;;;;6.49;64.99;95918.09;5071842;28;20453;-66
2021/05/06 00:43:17;;;;;;;2.70;1.20;;;;;;;6.45;63.97;95915.16;5072082;28;20044;-67
2021/05/06 00:54:24;;;;;;;2.65;1.13;;;;;;;6.52;63.00;95902.06;5072051;28;20055;-67
2021/05/06 00:56:57;;;;;;;3.35;0.98;;;;;;;6.60;63.21;95897.81;5071102;28;20056;-66
2021/05/06 01:02:22;;;;;;;2.65;1.00;;;;;;;6.73;62.13;95901.59;5029291;28;20055;-67
2021/05/06 01:04:51;;;;;;;3.08;1.23;;;;;;;6.79;61.98;95905.81;5072093;28;20051;-66
2021/05/06 01:07:43;;;;;;;4.40;1.17;;;;;;;6.86;61.67;95902.69;5070810;28;20045;-68
2021/05/06 01:10:21;;;;;;;4.10;1.30;;;;;;;6.93;61.87;95906.56;5069899;28;20543;-68
2021/05/06 01:12:48;;;;;;;2.20;1.08;;;;;;;7.03;61.75;95889.28;5071799;28;20049;-66
2021/05/06 01:15:15;;;;;;;2.22;1.23;;;;;;;7.12;61.20;95892.06;5069944;28;20048;-68
2021/05/06 01:17:41;;;;;;;2.38;1.23;;;;;;;7.15;61.72;95880.59;5071503;28;20036;-68
2021/05/06 01:20:08;;;;;;;2.97;1.20;;;;;;;7.21;62.21;95890.22;5070727;28;20522;-68
2021/05/06 01:22:35;;;;;;;4.38;1.33;;;;;;;7.24;62.58;95890.41;5069996;28;20047;-68
2021/05/06 01:25:01;;;;;;;2.25;1.02;;;;;;;7.24;61.68;95892.31;5071062;28;20095;-70
2021/05/06 01:27:35;;;;;;;3.17;1.00;;;;;;;7.20;62.04;95899.44;5071082;28;20045;-68
2021/05/06 01:30:08;;;;;;;;;;;;;;;7.19;62.75;95897.84;5072191;28;20106;-68
2021/05/06 01:32:37;;;;;;;1.85;1.20;;;;;;;7.12;62.43;95894.78;5070700;28;19920;-68
2021/05/06 01:35:07;;;;;;;4.47;1.27;;;;;;;7.13;62.63;95888.25;5071570;28;20446;-68
2021/05/06 01:37:42;;;;;;;4.75;1.05;;;;;;;7.18;62.62;95891.63;5070653;28;20426;-68
2021/05/06 01:40:36;;;;;;;1.75;1.10;;;;;;;7.20;62.39;95894.81;5070923;28;20127;-68
2021/05/06 01:43:04;;;;;;;2.88;1.20;;;;;;;7.13;62.55;95894.47;5071039;28;20055;-69
2021/05/06 01:45:59;;;;;;;3.33;1.42;;;;;;;7.04;62.32;95897.09;5070802;28;20101;-68
2021/05/06 01:48:44;;;;;;;4.85;1.40;;;;;;;7.02;63.20;95893.09;5031297;28;20120;-68
2021/05/06 01:57:27;;;;;;;1.90;1.08;;;;;;;6.97;63.45;95902.13;5030300;28;20049;-68
2021/05/06 01:59:39;;;;;;;4.43;1.38;;;;;;;6.70;64.59;95896.81;5019996;28;20049;-68
2021/05/06 02:02:05;;;;;;;3.55;1.27;;;;;;;6.62;64.74;95900.22;5030976;28;20496;-68
2021/05/06 02:04:31;;;;;;;5.00;1.30;;;;;;;6.68;65.71;95890.88;5030750;28;20141;-68
2021/05/06 02:10:23;;;;;;;5.00;1.52;;;;;;;6.77;65.18;95895.28;5027704;28;20076;-68
2021/05/06 02:12:49;;;;;;;5.28;1.67;;;;;;;6.84;65.23;95886.75;5029817;28;20045;-68
2021/05/06 02:15:18;;;;;;;1.98;1.45;;;;;;;6.92;65.45;95894.13;5030622;28;20092;-68
2021/05/06 02:17:45;;;;;;;2.88;1.40;;;;;;;6.98;66.23;95898.31;5030221;28;20045;-66
2021/05/06 02:20:12;;;;;;;1.90;1.20;;;;;;;7.02;67.09;95893.91;5030255;28;20081;-66
2021/05/06 02:22:38;;;;;;;2.58;1.15;;;;;;;7.04;67.30;95886.25;5030570;28;20056;-66
2021/05/06 02:25:06;;;;;;;1.85;1.25;;;;;;;7.04;67.47;95875.44;5029760;28;20652;-69
2021/05/06 02:27:33;;;;;;;2.40;1.38;;;;;;;7.03;67.84;95868.44;5030668;28;20515;-66
2021/05/06 02:29:59;;;;;;;2.38;1.10;;;;;;;7.01;68.03;95861.72;5029960;28;20046;-66
2021/05/06 02:32:27;;;;;;;4.65;1.40;;;;;;;6.90;67.50;95853.06;5030578;28;20562;-66
2021/05/06 02:34:53;;;;;;;2.70;1.40;;;;;;;6.84;66.78;95854.28;5029893;28;20049;-66
2021/05/06 02:37:19;;;;;;;4.53;1.60;;;;;;;6.81;67.58;95849.47;5030466;28;20455;-66
2021/05/06 02:39:46;;;;;;;2.10;1.10;;;;;;;6.76;67.67;95844.97;5029852;28;20045;-66
2021/05/06 02:42:12;;;;;;;4.00;1.92;;;;;;;6.74;67.43;95847.19;5030027;28;20132;-66
2021/05/06 02:44:40;;;;;;;3.22;1.40;;;;;;;6.74;67.94;95843.69;5030177;28;20052;-68
2021/05/06 02:47:06;;;;;;;4.88;1.50;;;;;;;6.75;67.44;95845.28;5048280;28;20086;-66
2021/05/06 02:49:32;;;;;;;5.30;1.95;;;;;;;6.76;68.03;95842.25;5069763;28;20043;-66
2021/05/06 02:52:04;;;;;;;4.65;1.40;;;;;;;6.75;68.58;95851.50;5069346;28;20048;-66
2021/05/06 02:54:36;;;;;;;6.30;1.45;;;;;;;6.74;68.89;95849.09;5070252;28;20121;-66
2021/05/06 02:57:07;;;;;;;4.22;1.40;;;;;;;6.72;68.52;95845.88;5069038;28;20467;-67
2021/05/06 03:04:59;;;;;;;3.72;1.70;;;;;;;6.64;69.80;95844.72;5069882;28;20048;-66
2021/05/06 03:07:28;;;;;;;2.65;1.50;;;;;;;6.63;69.83;95831.47;5069716;28;20053;-66
2021/05/06 03:10:00;;;;;;;3.97;1.80;;;;;;;6.61;69.90;95828.28;5069071;28;20049;-66
2021/05/06 03:12:39;;;;;;;6.32;1.67;;;;;;;6.58;69.43;95829.72;5070251;28;20075;-67
2021/05/06 03:20:58;;;;;;;3.92;1.90;;;;;;;6.53;69.12;95833.31;5068779;28;20051;-66
2021/05/06 03:23:38;;;;;;;4.38;1.80;;;;;;;6.46;69.73;95824.81;4987346;28;20069;-68
2021/05/06 03:26:04;;;;;;;4.82;2.00;;;;;;;6.46;69.32;95832.91;5053760;28;20068;-68
2021/05/06 03:28:34;;;;;;;4.47;2.08;;;;;;;6.48;69.73;95819.13;5073068;28;20406;-66
2021/05/06 03:42:08;;;;;;;5.53;1.70;;;;;;;6.52;68.25;95837.13;5070805;28;20048;-66
2021/05/06 03:44:47;;;;;;;3.80;1.40;;;;;;;6.59;68.11;95825.91;5073467;28;20051;-68
2021/05/06 04:17:34;;;;;;;2.95;1.40;;;;;;;6.76;62.83;95836.06;5066286;28;20101;-68
2021/05/06 04:25:45;;;;;;;4.80;1.30;;;;;;;6.59;64.08;95854.84;5035428;28;20059;-66
2021/05/06 04:31:09;;;;;;;5.45;1.50;;;;;;;6.57;63.50;95854.34;5051190;28;20071;-68
2021/05/06 04:36:25;;;;;;;6.53;1.50;;;;;;;6.61;64.42;95860.75;5071887;28;20051;-66
2021/05/06 04:38:52;;;;;;;3.67;1.20;;;;;;;6.57;65.06;95862.44;5072591;28;20535;-66
2021/05/06 04:41:33;;;;;;;4.72;1.40;;;;;;;6.65;65.59;95867.16;5072425;28;20044;-66
2021/05/06 04:55:00;;;;;;;2.33;1.20;;;;;;;6.85;65.97;95861.28;5072774;28;20097;-66
2021/05/06 05:05:35;;;;;;;3.35;1.63;;;;;;;6.88;67.41;95866.06;5071087;28;20085;-66
2021/05/06 05:08:06;;;;;;;3.60;1.40;;;;;;;6.78;67.49;95877.13;5071927;28;20062;-67
2021/05/06 05:10:45;;;;;;;7.15;1.50;;;;;;;6.77;67.98;95867.41;5070885;28;20044;-66
2021/05/06 05:13:37;;;;;;;7.32;1.70;;;;;;;6.74;68.16;95859.94;5071539;28;20102;-68
2021/05/06 05:19:02;;;;;;;5.18;1.67;;;;;;;6.76;67.98;95869.31;5071063;28;20074;-66
2021/05/06 05:24:19;;;;;;;4.93;1.52;;;;;;;6.72;69.27;95871.03;5071501;28;20122;-66
2021/05/06 05:26:47;;;;;;;4.70;1.90;;;;;;;6.75;69.04;95867.72;5071463;28;20047;-67
2021/05/06 05:29:13;;;;;;;4.32;1.40;;;;;;;6.74;67.64;95862.63;5070537;28;20040;-68
2021/05/06 05:31:39;;;;;;;4.50;1.40;;;;;;;6.75;67.79;95856.09;5071089;28;20044;-68
2021/05/06 05:34:16;;;;;;;5.35;1.38;;;;;;;6.78;68.84;95850.06;5071093;28;20416;-68
2021/05/06 05:36:42;;;;;;;4.40;1.40;;;;;;;6.83;68.61;95846.44;5070656;28;20044;-68
2021/05/06 05:39:12;;;;;;;2.85;1.40;;;;;;;6.95;68.73;95849.44;5071361;28;20094;-67
2021/05/06 05:42:00;;;;;;;5.13;1.52;;;;;;;7.01;68.35;95849.00;5071611;28;20044;-67
2021/05/06 05:45:08;;;;;;;10.18;2.75;;;;;;;7.11;68.11;95852.56;5071137;28;20505;-67
2021/05/06 05:56:00;;;;;;;4.22;1.85;;;;;;;7.47;67.90;95869.53;5071733;28;20048;-67
2021/05/06 05:58:26;;;;;;;5.57;1.98;;;;;;;7.59;68.11;95872.47;5070152;28;20128;-65
2021/05/06 06:00:53;;;;;;;5.47;1.42;;;;;;;7.72;67.59;95872.69;5071097;28;20433;-66
2021/05/06 06:03:19;;;;;;;3.88;1.40;;;;;;;7.66;66.02;95874.72;5069699;28;20044;-65
2021/05/06 06:05:45;;;;;;;4.85;1.23;;;;;;;7.64;66.33;95873.47;5071112;28;20048;-66
2021/05/06 06:08:11;;;;;;;5.55;1.88;;;;;;;7.74;67.35;95870.47;5069416;28;20114;-72
2021/05/06 06:10:38;;;;;;;8.27;1.70;;;;;;;7.87;67.58;95872.28;5069737;28;20558;-73
2021/05/06 06:13:04;;;;;;;3.95;1.55;;;;;;;8.01;66.01;95870.28;5070298;28;20072;-72
2021/05/06 06:15:46;;;;;;;4.10;1.55;;;;;;;8.03;65.17;95876.19;5071325;28;20040;-72
2021/05/06 06:18:17;;;;;;;2.67;1.40;;;;;;;8.07;64.73;95871.72;5068674;28;20052;-70
2021/05/06 06:20:46;;;;;;;5.60;1.70;;;;;;;8.11;64.37;95864.56;5069284;28;20052;-69
2021/05/06 06:23:12;;;;;;;3.67;1.30;;;;;;;8.08;65.02;95864.41;5067660;28;20086;-69
2021/05/06 06:25:38;;;;;;;6.90;1.73;;;;;;;8.07;64.81;95860.88;5066949;28;20048;-69
2021/05/06 06:28:07;;;;;;;3.97;1.73;;;;;;;8.05;65.08;95860.41;5067683;28;20052;-70
2021/05/06 06:30:34;;;;;;;5.03;2.00;;;;;;;8.07;65.30;95851.94;5067521;28;20044;-70
2021/05/06 06:33:00;;;;;;;3.83;1.73;;;;;;;7.97;63.95;95846.81;5068445;28;20060;-70
2021/05/06 06:35:27;;;;;;;4.55;1.73;;;;;;;8.02;65.33;95842.03;5067344;28;20679;-70
2021/05/06 06:37:53;;;;;;;3.63;1.63;;;;;;;8.21;65.29;95846.41;5067773;28;20779;-71
2021/05/06 06:40:19;;;;;;;3.95;1.60;;;;;;;8.29;64.50;95842.91;5066852;28;20044;-71
2021/05/06 06:42:45;;;;;;;2.78;1.45;;;;;;;8.45;65.09;95838.66;5068795;28;20043;-70
2021/05/06 06:45:12;;;;;;;3.75;1.85;;;;;;;8.46;63.61;95840.28;5070097;28;20041;-70
2021/05/06 06:47:38;;;;;;;4.47;1.88;;;;;;;8.39;64.32;95831.81;5069817;28;20045;-69
2021/05/06 06:50:04;;;;;;;3.15;1.35;;;;;;;8.43;63.98;95829.25;5070377;28;20408;-70
2021/05/06 06:52:31;;;;;;;5.47;1.70;;;;;;;8.35;63.92;95828.91;5068460;28;20063;-70
2021/05/06 06:54:57;;;;;;;3.70;1.30;;;;;;;8.44;64.63;95828.94;5050583;28;20064;-70
2021/05/06 06:57:23;;;;;;;5.82;1.90;;;;;;;8.59;63.25;95825.78;5048984;28;20480;-70
2021/05/06 06:59:49;;;;;;;6.05;2.13;;;;;;;8.58;62.22;95835.03;5062231;28;20084;-70
2021/05/06 07:02:15;;;;;;;7.95;3.67;;;;;;;8.71;62.54;95821.63;5069716;28;20044;-69
2021/05/06 07:04:41;;;;;;;4.03;1.77;;;;;;;8.71;61.66;95819.69;5069138;28;20048;-69
2021/05/06 07:07:07;;;;;;;4.00;1.90;;;;;;;8.73;61.55;95814.78;5069352;28;20441;-70
2021/05/06 07:09:34;;;;;;;5.25;1.80;;;;;;;8.74;62.66;95815.56;5069764;28;20055;-69
2021/05/06 07:12:00;;;;;;;8.50;2.10;;;;;;;8.82;62.36;95812.03;5069455;28;20044;-69
2021/05/06 07:14:28;;;;;;;6.68;1.90;;;;;;;8.94;61.40;95814.94;5069216;28;20049;-70
2021/05/06 07:16:54;;;;;;;6.10;2.10;;;;;;;8.92;60.79;95817.16;5070367;28;20048;-70
2021/05/06 07:19:20;;;;;;;4.65;1.85;;;;;;;9.02;61.09;95811.41;5069061;28;20048;-70
2021/05/06 07:21:46;;;;;;;5.72;2.08;;;;;;;9.13;60.99;95801.81;5070066;28;20044;-69
2021/05/06 07:24:12;;;;;;;7.25;1.80;;;;;;;9.17;60.00;95795.72;5068902;28;20044;-70
2021/05/06 07:26:39;;;;;;;12.55;1.92;;;;;;;9.14;58.78;95800.69;5069848;28;20083;-70
2021/05/06 07:29:05;;;;;;;4.63;1.73;;;;;;;9.24;59.21;95794.13;5069113;28;20048;-71
2021/05/06 07:31:31;;;;;;;8.43;1.70;;;;;;;9.41;58.66;95798.72;5069745;28;20492;-70
2021/05/06 07:33:57;;;;;;;3.67;1.90;;;;;;;9.41;58.31;95798.72;5069864;28;20048;-70
2021/05/06 07:36:23;;;;;;;6.35;1.85;;;;;;;9.34;57.37;95790.25;5068813;28;20094;-71
2021/05/06 07:38:49;;;;;;;4.38;1.73;;;;;;;9.35;57.71;95787.22;5070048;28;20044;-71
2021/05/06 07:41:16;;;;;;;4.82;1.90;;;;;;;9.44;57.38;95789.91;5069298;28;20445;-70
2021/05/06 07:43:43;;;;;;;5.45;2.00;;;;;;;9.64;56.42;95767.44;5070329;28;20140;-70
2021/05/06 07:46:11;;;;;;;3.50;1.40;;;;;;;9.85;51.79;95766.72;5068263;28;20047;-71
2021/05/06 07:48:37;;;;;;;6.20;1.23;;;;;;;10.02;50.14;95761.19;5070161;28;20068;-71
2021/05/06 07:51:03;;;;;;;9.90;1.95;;;;;;;10.48;47.96;95762.22;5068378;28;20049;-71
2021/05/06 07:53:37;;;;;;;9.63;1.70;;;;;;;11.23;48.22;95749.38;5069818;28;20045;-71
2021/05/06 07:56:04;;;;;;;8.88;1.63;;;;;;;11.94;48.07;95742.00;5068966;28;20045;-70
2021/05/06 07:58:30;;;;;;;3.70;1.45;;;;;;;12.92;44.18;95744.53;5069662;28;20045;-70
2021/05/06 08:00:57;;;;;;;3.25;1.63;;;;;;;13.55;40.27;95736.50;5069707;28;20074;-70
2021/05/06 08:03:23;;;;;;;7.22;2.05;;;;;;;14.25;37.84;95739.38;5068747;28;20556;-71
2021/05/06 08:05:53;;;;;;;5.85;1.50;;;;;;;13.99;37.22;95730.94;5069517;28;20506;-70
2021/05/06 08:08:19;;;;;;;4.93;1.60;;;;;;;13.78;35.68;95737.50;5069524;28;20098;-70
2021/05/06 08:10:45;;;;;;;8.57;1.77;;;;;;;14.09;36.75;95719.44;5069737;28;20044;-71
2021/05/06 08:13:11;;;;;;;11.02;1.92;;;;;;;15.02;38.67;95710.50;5072007;28;20132;-70
2021/05/06 08:15:37;;;;;;;4.10;1.60;;;;;;;15.55;35.63;95714.22;5073108;28;20040;-71
2021/05/06 08:18:04;;;;;;;5.43;1.80;;;;;;;15.20;33.38;95719.06;5072434;28;20119;-71
2021/05/06 08:20:31;;;;;;;4.45;1.60;;;;;;;14.87;34.81;95710.19;5072744;28;20624;-71
2021/05/06 08:22:57;;;;;;;4.95;1.63;;;;;;;14.12;35.45;95716.00;5072703;28;20044;-70
2021/05/06 08:25:24;;;;;;;5.43;1.70;;;;;;;13.43;39.46;95709.25;5071942;28;20044;-70
2021/05/06 08:27:50;;;;;;;5.60;1.98;;;;;;;12.94;40.83;95714.91;5072600;28;20135;-70
2021/05/06 08:30:17;;;;;;;3.58;1.80;;;;;;;12.76;40.57;95717.97;5071368;28;20052;-70
2021/05/06 08:32:44;;;;;;;5.93;1.50;;;;;;;12.72;41.31;95702.59;5073168;28;20411;-70
2021/05/06 08:35:12;;;;;;;6.45;1.80;;;;;;;12.79;41.60;95703.63;5071679;28;20499;-70
2021/05/06 08:37:38;;;;;;;6.15;1.70;;;;;;;12.71;42.05;95701.81;5072928;28;20595;-70
2021/05/06 08:40:05;;;;;;;5.60;1.40;;;;;;;12.51;40.15;95691.88;5071178;28;20085;-70
2021/05/06 08:42:32;;;;;;;5.70;1.40;;;;;;;12.46;40.99;95689.38;5072735;28;20040;-70
2021/05/06 08:44:58;;;;;;;8.52;1.90;;;;;;;12.54;46.55;95700.16;5072246;28;20495;-69
2021/05/06 08:47:24;;;;;;;7.53;1.85;;;;;;;12.49;40.94;95694.16;5056480;28;20067;-69
2021/05/06 08:49:51;;;;;;;6.18;1.55;;;;;;;12.50;43.40;95693.00;5052274;28;20048;-69
2021/05/06 08:52:20;;;;;;;5.35;1.40;;;;;;;12.53;43.51;95684.94;5066911;28;20055;-70
2021/05/06 08:54:47;;;;;;;5.30;1.60;;;;;;;12.42;40.08;95693.94;5072679;28;20403;-69
2021/05/06 08:57:14;;;;;;;6.10;1.70;;;;;;;12.72;46.31;95692.47;5071049;28;20051;-70
2021/05/06 08:59:40;;;;;;;5.10;1.30;;;;;;;13.15;40.32;95690.09;5072302;28;20055;-70
2021/05/06 09:02:06;;;;;;;5.10;1.50;;;;;;;12.87;41.93;95698.34;5071111;28;20507;-70
2021/05/06 09:04:32;;;;;;;4.65;1.40;;;;;;;12.76;41.30;95693.38;5072480;28;20563;-70
2021/05/06 09:06:59;;;;;;;4.28;1.48;;;;;;;12.85;44.71;95689.72;5053872;28;20411;-69
2021/05/06 09:09:29;;;;;;;10.45;1.98;;;;;;;12.87;43.32;95682.75;5071174;28;20123;-69
2021/05/06 09:11:57;;;;;;;7.90;1.70;;;;;;;12.78;41.13;95680.16;5071423;28;20052;-69
2021/05/06 09:14:38;;;;;;;9.98;1.70;;;;;;;12.90;43.06;95678.53;5071001;28;20132;-69
2021/05/06 09:17:05;;;;;;;6.30;1.65;;;;;;;13.03;42.92;95680.03;5071913;28;20050;-70
2021/05/06 09:19:31;;;;;;;6.70;1.33;;;;;;;13.11;43.07;95675.56;5071386;28;20549;-70
2021/05/06 09:21:58;;;;;;;7.53;1.65;;;;;;;13.25;45.76;95670.47;5071526;28;20094;-69
2021/05/06 09:24:27;;;;;;;5.40;2.30;;;;;;;13.13;41.07;95662.34;5070680;28;20036;-70
2021/05/06 09:26:56;;;;;;;6.15;1.55;;;;;;;13.03;40.73;95669.91;5071444;28;20423;-70
2021/05/06 09:29:30;;;;;;;5.65;1.90;;;;;;;12.92;41.19;95673.50;5070721;28;20048;-69
2021/05/06 09:32:13;;;;;;;4.20;1.60;;;;;;;13.05;42.44;95661.38;5071170;28;20059;-69
2021/05/06 09:34:40;;;;;;;6.50;2.10;;;;;;;13.21;41.39;95664.94;5071935;28;20048;-70
2021/05/06 09:37:08;;;;;;;6.20;1.70;;;;;;;13.34;43.29;95675.78;5070285;28;20045;-70
2021/05/06 09:39:35;;;;;;;4.55;1.85;;;;;;;13.17;42.28;95664.03;5071980;28;20410;-70
2021/05/06 09:42:10;;;;;;;7.45;2.10;;;;;;;13.09;41.07;95666.91;5070794;28;20040;-72
2021/05/06 09:44:56;;;;;;;6.57;2.00;;;;;;;12.97;40.55;95654.91;5071596;28;20047;-70
2021/05/06 09:47:22;;;;;;;5.50;1.98;;;;;;;13.07;43.64;95659.06;5070541;28;20048;-69
2021/05/06 09:49:50;;;;;;;6.45;1.73;;;;;;;13.17;39.41;95653.09;5070904;28;20044;-70
2021/05/06 09:52:16;;;;;;;4.07;1.65;;;;;;;12.86;41.32;95653.03;5070727;28;20048;-70
2021/05/06 09:54:48;;;;;;;4.90;1.80;;;;;;;12.79;42.90;95648.19;5070346;28;20713;-70
2021/05/06 09:57:25;;;;;;;6.82;1.52;;;;;;;12.90;44.47;95654.72;5070756;28;20461;-70
2021/05/06 09:59:51;;;;;;;7.50;1.70;;;;;;;12.89;41.95;95646.84;5070293;28;20048;-69
2021/05/06 10:02:18;;;;;;;6.45;1.48;;;;;;;12.88;42.30;95650.75;5070693;28;20066;-70
2021/05/06 10:04:45;;;;;;;6.22;1.98;;;;;;;12.67;41.83;95650.94;5070135;28;20106;-69
2021/05/06 10:07:14;;;;;;;7.25;1.77;;;;;;;12.76;44.27;95655.13;5070401;28;20052;-70
2021/05/06 10:09:51;;;;;;;7.35;1.70;;;;;;;12.80;42.81;95656.03;5070654;28;20424;-70
2021/05/06 10:12:18;;;;;;;5.10;1.30;;;;;;;12.70;42.68;95659.25;5049978;28;20052;-69
2021/05/06 10:14:46;;;;;;;4.40;1.63;;;;;;;12.54;41.54;95652.94;5051114;28;20040;-69
2021/05/06 10:17:13;;;;;;;7.43;1.70;;;;;;;12.42;44.55;95650.25;5049677;28;20061;-69
2021/05/06 10:19:40;;;;;;;6.13;1.73;;;;;;;12.32;42.95;95656.19;5051097;28;20099;-69
2021/05/06 10:22:07;;;;;;;7.95;1.90;;;;;;;12.14;42.03;95656.47;5049760;28;20049;-70
2021/05/06 10:24:34;;;;;;;5.13;1.40;;;;;;;12.18;44.81;95651.91;5050622;28;20044;-70
2021/05/06 10:27:00;;;;;;;5.50;1.55;;;;;;;12.07;42.96;95650.81;5050361;28;20534;-70
2021/05/06 10:29:28;;;;;;;6.70;1.75;;;;;;;11.99;43.95;95647.06;5058652;28;20490;-69
2021/05/06 10:31:54;;;;;;;6.70;1.92;;;;;;;11.96;43.78;95646.97;5070710;28;20052;-69
2021/05/06 10:34:21;;;;;;;5.45;1.80;;;;;;;12.06;46.12;95651.97;5069048;28;20044;-70
2021/05/06 10:36:49;;;;;;;5.78;1.50;;;;;;;12.18;45.26;95646.47;5070681;28;20411;-70
2021/05/06 10:39:15;;;;;;;5.15;1.50;;;;;;;12.21;46.14;95645.75;5069469;28;20052;-69
2021/05/06 10:41:41;;;;;;;5.75;1.70;;;;;;;12.17;45.87;95644.88;5070732;28;20430;-70
2021/05/06 10:44:08;;;;;;;4.88;1.90;;;;;;;12.05;43.35;95646.81;5069251;28;20060;-70
2021/05/06 10:46:59;;;;;;;5.65;1.63;;;;;;;11.96;45.22;95660.63;5070710;28;20044;-70
2021/05/06 10:49:27;;;;;;;7.88;1.80;;;;;;;11.57;45.35;95659.34;5069601;28;20068;-69
2021/05/06 10:52:02;;;;;;;7.75;1.73;;;;;;;11.39;46.25;95653.34;5070085;28;20048;-70
2021/05/06 10:54:32;;;;;;;7.32;1.60;;;;;;;11.26;46.70;95659.91;5052429;28;20403;-70
2021/05/06 10:56:59;;;;;;;4.88;1.52;;;;;;;11.15;48.55;95663.06;5069572;28;20044;-69
2021/05/06 10:59:27;;;;;;;6.90;1.83;;;;;;;11.18;49.48;95659.69;5069852;28;20036;-70
2021/05/06 11:01:54;;;;;;;7.97;2.08;;;;;;;11.01;50.26;95670.75;5069668;28;20044;-70
2021/05/06 11:04:35;;;;;;;5.45;1.60;;;;;;;10.91;49.49;95666.56;5069250;28;20052;-69
2021/05/06 11:07:13;;;;;;;3.85;1.40;;;;;;;10.83;51.15;95675.59;5069616;28;20048;-69
2021/05/06 11:09:51;;;;;;;6.30;1.90;;;;;;;10.67;51.27;95664.53;5069753;28;20098;-69
2021/05/06 11:12:26;;;;;;;3.63;1.60;;;;;;;10.59;52.33;95672.78;5049413;28;20044;-69
2021/05/06 11:15:25;;;;;;;4.65;1.70;;;;;;;10.39;55.57;95666.25;5049460;28;20522;-68
2021/05/06 11:17:54;;;;;;;8.13;1.58;;;;;;;10.48;55.59;95663.44;5049846;28;20048;-69
2021/05/06 11:21:01;;;;;;;5.05;2.15;;;;;;;10.44;54.97;95663.31;5040682;28;20392;-68
2021/05/06 11:23:30;;;;;;;7.28;1.60;;;;;;;10.48;55.47;95661.50;5048026;28;20097;-69
2021/05/06 11:26:07;;;;;;;4.55;2.00;;;;;;;10.55;54.71;95659.06;5048538;28;20095;-69
2021/05/06 11:28:50;;;;;;;4.50;1.50;;;;;;;10.51;54.59;95649.97;5050324;28;20080;-68
2021/05/06 11:31:41;;;;;;;4.30;1.48;;;;;;;10.50;55.83;95653.03;5069434;28;20539;-71
2021/05/06 11:34:31;;;;;;;3.28;1.42;;;;;;;10.38;54.92;95659.19;5069320;28;20499;-72
2021/05/06 11:37:17;;;;;;;3.85;1.38;;;;;;;10.29;55.07;95644.88;5069176;28;20052;-71
2021/05/06 11:39:54;;;;;;;6.72;2.03;;;;;;;10.26;55.87;95651.75;5070194;28;20070;-71
2021/05/06 11:42:22;;;;;;;3.83;1.17;;;;;;;10.20;56.05;95653.88;5068816;28;20040;-69
2021/05/06 11:45:08;;;;;;;5.97;1.40;;;;;;;10.17;57.34;95646.34;5069938;28;20041;-70
2021/05/06 11:47:34;;;;;;;5.38;1.33;;;;;;;10.08;58.97;95645.66;5072448;28;20082;-71
2021/05/06 11:50:14;;;;;;;4.38;1.38;;;;;;;10.00;59.52;95648.41;5072788;28;20127;-69
2021/05/06 11:52:40;;;;;;;8.18;1.77;;;;;;;9.95;61.99;95646.69;5073620;28;20037;-70
2021/05/06 11:55:07;;;;;;;4.28;1.13;;;;;;;9.92;62.70;95653.59;5072323;28;20458;-70
2021/05/06 11:57:34;;;;;;;3.10;1.25;;;;;;;9.86;62.60;95637.78;5073266;28;20037;-70
2021/05/06 12:00:00;;;;;;;8.57;1.67;;;;;;;9.73;63.47;95645.09;5072313;28;20357;-69
2021/05/06 12:02:26;;;;;;;4.85;1.98;;;;;;;9.65;63.45;95633.13;5072722;28;20591;-69
2021/05/06 12:04:52;;;;;;;2.88;1.45;;;;;;;9.60;65.06;95646.09;5072970;28;20040;-70
2021/05/06 12:07:21;;;;;;;5.78;1.65;;;;;;;9.40;66.95;95642.25;5072425;28;20049;-71
2021/05/06 12:09:48;;;;;;;3.60;1.48;;;;;;;9.50;66.86;95639.16;5072752;28;20050;-71
2021/05/06 12:12:20;;;;;;;5.10;1.98;;;;;;;9.60;66.85;95636.03;5072168;28;20127;-70
2021/05/06 12:14:46;;;;;;;3.70;1.45;;;;;;;9.56;66.90;95634.31;5073570;28;20419;-70
2021/05/06 12:17:18;;;;;;;5.03;1.75;;;;;;;9.64;65.37;95628.03;5071193;28;20049;-71
2021/05/06 12:19:46;;;;;;;6.55;1.90;;;;;;;9.53;65.60;95630.31;5073040;28;20045;-71
2021/05/06 12:22:12;;;;;;;4.22;1.48;;;;;;;9.38;66.93;95628.16;5071895;28;20503;-71
2021/05/06 12:24:41;;;;;;;3.97;1.40;;;;;;;9.31;66.45;95622.47;5072646;28;20120;-69
2021/05/06 12:27:18;;;;;;;4.88;1.60;;;;;;;9.25;66.04;95612.91;5071948;28;20079;-70
2021/05/06 12:29:45;;;;;;;4.22;1.38;;;;;;;9.29;66.92;95606.50;5072188;28;20064;-69
2021/05/06 12:32:17;;;;;;;4.50;1.40;;;;;;;9.23;67.23;95607.00;5072092;28;20515;-69
2021/05/06 12:34:43;;;;;;;4.22;1.20;;;;;;;9.09;67.54;95605.31;5071789;28;20047;-68
2021/05/06 12:37:09;;;;;;;5.90;1.50;;;;;;;8.99;67.53;95602.16;5072365;28;20098;-69
2021/05/06 12:39:35;;;;;;;4.55;1.60;;;;;;;8.94;68.15;95608.56;5071673;28;20044;-70
2021/05/06 12:42:05;;;;;;;3.88;1.58;;;;;;;8.89;67.57;95589.75;5072468;28;20070;-69
2021/05/06 12:44:41;;;;;;;3.35;1.20;;;;;;;8.95;70.23;95587.63;5071637;28;20063;-69
2021/05/06 12:47:27;;;;;;;5.55;1.45;;;;;;;8.99;70.14;95583.16;5071863;28;20041;-70
2021/05/06 12:50:07;;;;;;;1.98;1.30;;;;;;;8.97;70.00;95571.81;5071601;28;20045;-69
2021/05/06 12:52:35;;;;;;;2.38;1.50;;;;;;;9.04;70.40;95570.19;5070081;28;20043;-69
2021/05/06 12:55:02;;;;;;;4.88;1.50;;;;;;;9.20;70.93;95572.34;5071637;28;20044;-69
2021/05/06 12:57:30;;;;;;;4.93;1.70;;;;;;;9.30;71.73;95555.66;5070829;28;20110;-69
2021/05/06 13:00:18;;;;;;;4.93;1.85;;;;;;;9.39;70.51;95553.69;5072381;28;20076;-69
2021/05/06 13:02:44;;;;;;;3.03;1.58;;;;;;;9.42;70.32;95542.16;5071703;28;20043;-69
2021/05/06 13:05:12;;;;;;;5.10;1.80;;;;;;;9.55;73.42;95535.69;5071618;28;20131;-70
2021/05/06 13:07:50;;;;;;;7.03;1.60;;;;;;;9.56;69.77;95531.03;5071992;28;20044;-69
2021/05/06 13:10:27;;;;;;;3.55;1.58;;;;;;;9.53;71.66;95520.81;5070672;28;20060;-69
2021/05/06 13:12:54;;;;;;;3.47;1.92;;;;;;;9.62;72.75;95516.13;5072282;28;20132;-70
2021/05/06 13:15:20;;;;;;;6.80;1.92;;;;;;;9.73;73.82;95513.78;5070768;28;20380;-70
2021/05/06 13:17:46;;;;;;;5.47;1.50;;;;;;;9.83;72.08;95507.94;5071112;28;20396;-69
2021/05/06 13:20:18;;;;;;;3.72;1.80;;;;;;;9.91;71.97;95512.50;5070845;28;20078;-70
2021/05/06 13:23:01;;;;;;;5.38;1.75;;;;;;;9.89;71.97;95501.16;5071122;28;20509;-70
2021/05/06 13:25:49;;;;;;;6.32;2.83;;;;;;;9.89;71.40;95491.09;5071765;28;20098;-70
2021/05/06 13:28:18;;;;;;;4.70;2.63;;;;;;;9.93;69.87;95485.78;5064091;28;20047;-69
2021/05/06 13:30:44;;;;;;;6.15;1.85;;;;;;;9.93;69.05;95485.78;5072095;28;20385;-69
2021/05/06 13:33:13;;;;;;;5.40;1.77;;;;;;;9.93;72.03;95474.91;5071397;28;20098;-69
2021/05/06 13:35:40;;;;;;;4.82;1.80;;;;;;;9.81;67.43;95472.13;5071897;28;20036;-69
2021/05/06 13:38:06;;;;;;;5.03;1.83;;;;;;;9.78;69.51;95472.81;5070706;28;20067;-70
2021/05/06 13:40:32;;;;;;;4.30;1.80;;;;;;;9.73;69.47;95464.84;5071256;28;20040;-70
2021/05/06 13:42:58;;;;;;;4.72;2.17;;;;;;;9.76;71.66;95466.88;5071248;28;20056;-70
2021/05/06 13:45:25;;;;;;;3.40;1.73;;;;;;;9.74;68.93;95466.44;5070358;28;20041;-70
2021/05/06 13:47:51;;;;;;;2.60;1.67;;;;;;;9.75;70.29;95462.59;5069434;28;20119;-70
2021/05/06 13:50:18;;;;;;;3.42;1.77;;;;;;;9.71;67.92;95464.38;5068248;28;20437;-70
2021/05/06 13:52:44;;;;;;;6.05;2.20;;;;;;;9.62;69.24;95465.25;5069870;28;20045;-70
2021/05/06 13:55:13;;;;;;;5.22;2.15;;;;;;;9.43;70.21;95458.72;5069746;28;20220;-71
2021/05/06 13:57:40;;;;;;;5.43;2.03;;;;;;;9.22;70.37;95462.22;5071256;28;20041;-71
2021/05/06 14:00:07;;;;;;;4.82;2.10;;;;;;;9.19;70.94;95453.94;5069831;28;20058;-71
2021/05/06 14:02:34;;;;;;;4.90;2.13;;;;;;;9.01;71.20;95445.91;5071052;28;20380;-71
2021/05/06 14:05:00;;;;;;;5.22;2.50;;;;;;;9.07;73.54;95444.59;5070639;28;20048;-71
2021/05/06 14:07:26;;;;;;;3.80;1.80;;;;;;;9.07;72.54;95450.03;5067360;28;20048;-70
2021/05/06 14:09:54;;;;;;;4.63;2.40;;;;;;;9.03;73.86;95437.44;5068845;28;20053;-71
2021/05/06 14:12:21;;;;;;;5.70;2.20;;;;;;;9.03;75.08;95434.72;5068684;28;20137;-69